sensor_id;sensor_type;location;lat;lon;timestamp;P1;durP1;ratioP1;P2;durP2;ratioP2
8964;SDS011;4517;49.020;12.066;2023-09-30T00:01:00;40.53;;;24.00;;
8964;SDS011;4517;49.020;12.066;2023-09-30T00:03:27;36.20;;;24.93;;
8964;SDS011;4517;49.020;12.066;2023-09-30T00:05:53;42.57;;;24.10;;
8964;SDS011;4517;49.020;12.066;2023-09-30T00:08:19;37.67;;;23.53;;
8964;SDS011;4517;49.020;12.066;2023-09-30T00:10:45;38.07;;;23.97;;
8964;SDS011;4517;49.020;12.066;2023-09-30T00:13:11;39.47;;;24.30;;
8964;SDS011;4517;49.020;12.066;2023-09-30T00:15:37;29.17;;;22.30;;
8964;SDS011;4517;49.020;12.066;2023-09-30T00:18:03;35.60;;;23.50;;
8964;SDS011;4517;49.020;12.066;2023-09-30T00:20:30;33.80;;;22.33;;
8964;SDS011;4517;49.020;12.066;2023-09-30T00:22:56;38.80;;;23.53;;
8964;SDS011;4517;49.020;12.066;2023-09-30T00:25:23;37.23;;;22.23;;
8964;SDS011;4517;49.020;12.066;2023-09-30T00:27:49;33.50;;;23.77;;
8964;SDS011;4517;49.020;12.066;2023-09-30T00:30:15;39.00;;;22.13;;
8964;SDS011;4517;49.020;12.066;2023-09-30T00:32:41;32.23;;;22.67;;
8964;SDS011;4517;49.020;12.066;2023-09-30T00:35:07;34.17;;;21.90;;
8964;SDS011;4517;49.020;12.066;2023-09-30T00:37:39;34.90;;;22.17;;
8964;SDS011;4517;49.020;12.066;2023-09-30T00:40:06;38.43;;;21.93;;
8964;SDS011;4517;49.020;12.066;2023-09-30T00:42:36;31.63;;;21.73;;
8964;SDS011;4517;49.020;12.066;2023-09-30T00:45:02;34.27;;;21.57;;
8964;SDS011;4517;49.020;12.066;2023-09-30T00:47:30;29.07;;;21.00;;
8964;SDS011;4517;49.020;12.066;2023-09-30T00:49:56;32.03;;;22.63;;
8964;SDS011;4517;49.020;12.066;2023-09-30T00:52:22;31.67;;;21.70;;
8964;SDS011;4517;49.020;12.066;2023-09-30T00:54:48;33.53;;;22.00;;
8964;SDS011;4517;49.020;12.066;2023-09-30T00:57:15;30.87;;;21.90;;
8964;SDS011;4517;49.020;12.066;2023-09-30T00:59:42;32.27;;;22.17;;
8964;SDS011;4517;49.020;12.066;2023-09-30T01:02:08;28.47;;;21.43;;
8964;SDS011;4517;49.020;12.066;2023-09-30T01:04:34;31.53;;;21.00;;
8964;SDS011;4517;49.020;12.066;2023-09-30T01:07:01;30.77;;;21.53;;
8964;SDS011;4517;49.020;12.066;2023-09-30T01:09:27;29.03;;;21.03;;
8964;SDS011;4517;49.020;12.066;2023-09-30T01:11:53;32.40;;;21.17;;
8964;SDS011;4517;49.020;12.066;2023-09-30T01:14:29;34.37;;;21.23;;
8964;SDS011;4517;49.020;12.066;2023-09-30T01:16:55;31.47;;;21.90;;
8964;SDS011;4517;49.020;12.066;2023-09-30T01:19:22;34.47;;;22.70;;
8964;SDS011;4517;49.020;12.066;2023-09-30T01:21:54;28.37;;;21.97;;
8964;SDS011;4517;49.020;12.066;2023-09-30T01:24:27;30.63;;;21.27;;
8964;SDS011;4517;49.020;12.066;2023-09-30T01:26:53;33.00;;;20.87;;
8964;SDS011;4517;49.020;12.066;2023-09-30T01:29:19;34.73;;;20.70;;
8964;SDS011;4517;49.020;12.066;2023-09-30T01:31:50;36.10;;;22.27;;
8964;SDS011;4517;49.020;12.066;2023-09-30T01:34:16;26.67;;;20.67;;
8964;SDS011;4517;49.020;12.066;2023-09-30T01:36:43;38.80;;;21.80;;
8964;SDS011;4517;49.020;12.066;2023-09-30T01:39:09;28.10;;;20.93;;
8964;SDS011;4517;49.020;12.066;2023-09-30T01:41:36;33.43;;;21.20;;
8964;SDS011;4517;49.020;12.066;2023-09-30T01:44:02;30.47;;;22.50;;
8964;SDS011;4517;49.020;12.066;2023-09-30T01:46:28;32.93;;;21.63;;
8964;SDS011;4517;49.020;12.066;2023-09-30T01:48:54;37.20;;;22.17;;
8964;SDS011;4517;49.020;12.066;2023-09-30T01:51:20;31.77;;;21.30;;
8964;SDS011;4517;49.020;12.066;2023-09-30T01:53:47;28.90;;;21.67;;
8964;SDS011;4517;49.020;12.066;2023-09-30T01:56:13;33.23;;;21.97;;
8964;SDS011;4517;49.020;12.066;2023-09-30T01:58:39;30.37;;;22.30;;
8964;SDS011;4517;49.020;12.066;2023-09-30T02:01:05;30.83;;;22.10;;
8964;SDS011;4517;49.020;12.066;2023-09-30T02:03:31;33.93;;;21.80;;
8964;SDS011;4517;49.020;12.066;2023-09-30T02:05:57;29.70;;;21.70;;
8964;SDS011;4517;49.020;12.066;2023-09-30T02:08:23;31.73;;;21.87;;
8964;SDS011;4517;49.020;12.066;2023-09-30T02:10:50;29.70;;;21.00;;
8964;SDS011;4517;49.020;12.066;2023-09-30T02:13:19;30.17;;;21.80;;
8964;SDS011;4517;49.020;12.066;2023-09-30T02:15:45;28.40;;;22.40;;
8964;SDS011;4517;49.020;12.066;2023-09-30T02:18:11;38.07;;;23.33;;
8964;SDS011;4517;49.020;12.066;2023-09-30T02:20:37;28.53;;;21.43;;
8964;SDS011;4517;49.020;12.066;2023-09-30T02:23:05;34.10;;;21.77;;
8964;SDS011;4517;49.020;12.066;2023-09-30T02:25:31;27.37;;;20.53;;
8964;SDS011;4517;49.020;12.066;2023-09-30T02:27:58;27.87;;;21.60;;
8964;SDS011;4517;49.020;12.066;2023-09-30T02:30:25;27.70;;;21.20;;
8964;SDS011;4517;49.020;12.066;2023-09-30T02:32:52;29.63;;;20.90;;
8964;SDS011;4517;49.020;12.066;2023-09-30T02:35:18;29.17;;;20.63;;
8964;SDS011;4517;49.020;12.066;2023-09-30T02:37:45;30.00;;;21.10;;
8964;SDS011;4517;49.020;12.066;2023-09-30T02:40:11;23.03;;;19.30;;
8964;SDS011;4517;49.020;12.066;2023-09-30T02:42:40;29.70;;;20.43;;
8964;SDS011;4517;49.020;12.066;2023-09-30T02:45:06;25.80;;;20.30;;
8964;SDS011;4517;49.020;12.066;2023-09-30T02:47:35;25.73;;;19.37;;
8964;SDS011;4517;49.020;12.066;2023-09-30T02:50:01;23.93;;;20.57;;
8964;SDS011;4517;49.020;12.066;2023-09-30T02:52:29;26.03;;;19.70;;
8964;SDS011;4517;49.020;12.066;2023-09-30T02:54:56;24.70;;;20.03;;
8964;SDS011;4517;49.020;12.066;2023-09-30T02:57:22;27.90;;;20.67;;
8964;SDS011;4517;49.020;12.066;2023-09-30T02:59:48;24.97;;;19.90;;
8964;SDS011;4517;49.020;12.066;2023-09-30T03:02:14;25.77;;;19.40;;
8964;SDS011;4517;49.020;12.066;2023-09-30T03:04:40;24.77;;;19.70;;
8964;SDS011;4517;49.020;12.066;2023-09-30T03:07:07;24.63;;;19.67;;
8964;SDS011;4517;49.020;12.066;2023-09-30T03:09:33;26.50;;;19.97;;
8964;SDS011;4517;49.020;12.066;2023-09-30T03:12:01;25.87;;;20.47;;
8964;SDS011;4517;49.020;12.066;2023-09-30T03:14:27;24.80;;;19.33;;
8964;SDS011;4517;49.020;12.066;2023-09-30T03:16:55;27.47;;;20.80;;
8964;SDS011;4517;49.020;12.066;2023-09-30T03:19:21;26.93;;;19.70;;
8964;SDS011;4517;49.020;12.066;2023-09-30T03:21:48;27.40;;;20.27;;
8964;SDS011;4517;49.020;12.066;2023-09-30T03:24:13;26.77;;;21.07;;
8964;SDS011;4517;49.020;12.066;2023-09-30T03:26:39;29.87;;;21.03;;
8964;SDS011;4517;49.020;12.066;2023-09-30T03:29:06;29.53;;;19.93;;
8964;SDS011;4517;49.020;12.066;2023-09-30T03:31:33;27.30;;;20.40;;
8964;SDS011;4517;49.020;12.066;2023-09-30T03:34:00;24.00;;;20.87;;
8964;SDS011;4517;49.020;12.066;2023-09-30T03:36:26;28.60;;;21.07;;
8964;SDS011;4517;49.020;12.066;2023-09-30T03:38:55;26.23;;;20.77;;
8964;SDS011;4517;49.020;12.066;2023-09-30T03:41:21;31.00;;;21.80;;
8964;SDS011;4517;49.020;12.066;2023-09-30T03:43:47;33.00;;;21.07;;
8964;SDS011;4517;49.020;12.066;2023-09-30T03:46:14;29.63;;;21.10;;
8964;SDS011;4517;49.020;12.066;2023-09-30T03:48:40;30.47;;;20.43;;
8964;SDS011;4517;49.020;12.066;2023-09-30T03:51:08;25.93;;;20.30;;
8964;SDS011;4517;49.020;12.066;2023-09-30T03:53:34;26.87;;;21.10;;
8964;SDS011;4517;49.020;12.066;2023-09-30T03:56:01;28.23;;;20.60;;
8964;SDS011;4517;49.020;12.066;2023-09-30T03:58:27;28.30;;;20.10;;
8964;SDS011;4517;49.020;12.066;2023-09-30T04:00:53;29.23;;;21.20;;
8964;SDS011;4517;49.020;12.066;2023-09-30T04:03:20;31.50;;;21.50;;
8964;SDS011;4517;49.020;12.066;2023-09-30T04:05:47;33.47;;;21.33;;
8964;SDS011;4517;49.020;12.066;2023-09-30T04:08:15;28.70;;;20.73;;
8964;SDS011;4517;49.020;12.066;2023-09-30T04:10:42;31.57;;;20.97;;
8964;SDS011;4517;49.020;12.066;2023-09-30T04:13:09;33.03;;;21.67;;
8964;SDS011;4517;49.020;12.066;2023-09-30T04:15:36;27.00;;;20.37;;
8964;SDS011;4517;49.020;12.066;2023-09-30T04:18:02;26.87;;;20.83;;
8964;SDS011;4517;49.020;12.066;2023-09-30T04:20:30;30.53;;;21.53;;
8964;SDS011;4517;49.020;12.066;2023-09-30T04:22:56;28.70;;;21.37;;
8964;SDS011;4517;49.020;12.066;2023-09-30T04:25:22;28.40;;;22.40;;
8964;SDS011;4517;49.020;12.066;2023-09-30T04:27:51;29.03;;;21.90;;
8964;SDS011;4517;49.020;12.066;2023-09-30T04:30:17;32.10;;;21.60;;
8964;SDS011;4517;49.020;12.066;2023-09-30T04:32:44;30.97;;;21.90;;
8964;SDS011;4517;49.020;12.066;2023-09-30T04:35:10;28.40;;;21.70;;
8964;SDS011;4517;49.020;12.066;2023-09-30T04:37:37;31.97;;;21.37;;
8964;SDS011;4517;49.020;12.066;2023-09-30T04:40:12;30.33;;;22.60;;
8964;SDS011;4517;49.020;12.066;2023-09-30T04:42:43;32.30;;;22.47;;
8964;SDS011;4517;49.020;12.066;2023-09-30T04:45:10;31.47;;;21.57;;
8964;SDS011;4517;49.020;12.066;2023-09-30T04:47:36;30.47;;;21.17;;
8964;SDS011;4517;49.020;12.066;2023-09-30T04:50:04;28.73;;;21.80;;
8964;SDS011;4517;49.020;12.066;2023-09-30T04:52:32;33.73;;;22.00;;
8964;SDS011;4517;49.020;12.066;2023-09-30T04:54:58;33.43;;;21.80;;
8964;SDS011;4517;49.020;12.066;2023-09-30T04:57:28;29.97;;;21.30;;
8964;SDS011;4517;49.020;12.066;2023-09-30T04:59:55;34.40;;;22.20;;
8964;SDS011;4517;49.020;12.066;2023-09-30T05:02:22;29.27;;;21.83;;
8964;SDS011;4517;49.020;12.066;2023-09-30T05:04:48;36.27;;;22.73;;
8964;SDS011;4517;49.020;12.066;2023-09-30T05:07:14;32.20;;;21.83;;
8964;SDS011;4517;49.020;12.066;2023-09-30T05:09:40;31.07;;;22.30;;
8964;SDS011;4517;49.020;12.066;2023-09-30T05:12:07;34.87;;;21.70;;
8964;SDS011;4517;49.020;12.066;2023-09-30T05:14:33;35.13;;;22.77;;
8964;SDS011;4517;49.020;12.066;2023-09-30T05:16:59;28.90;;;20.27;;
8964;SDS011;4517;49.020;12.066;2023-09-30T05:19:25;34.03;;;22.10;;
8964;SDS011;4517;49.020;12.066;2023-09-30T05:21:51;28.50;;;21.17;;
8964;SDS011;4517;49.020;12.066;2023-09-30T05:24:17;30.87;;;21.90;;
8964;SDS011;4517;49.020;12.066;2023-09-30T05:26:44;34.23;;;21.90;;
8964;SDS011;4517;49.020;12.066;2023-09-30T05:29:10;27.20;;;21.23;;
8964;SDS011;4517;49.020;12.066;2023-09-30T05:31:36;31.77;;;22.87;;
8964;SDS011;4517;49.020;12.066;2023-09-30T05:34:03;36.07;;;22.93;;
8964;SDS011;4517;49.020;12.066;2023-09-30T05:36:29;27.90;;;23.70;;
8964;SDS011;4517;49.020;12.066;2023-09-30T05:38:55;29.93;;;21.10;;
8964;SDS011;4517;49.020;12.066;2023-09-30T05:41:22;36.30;;;22.60;;
8964;SDS011;4517;49.020;12.066;2023-09-30T05:43:49;25.97;;;21.27;;
8964;SDS011;4517;49.020;12.066;2023-09-30T05:46:15;26.90;;;22.30;;
8964;SDS011;4517;49.020;12.066;2023-09-30T05:48:41;29.10;;;21.47;;
8964;SDS011;4517;49.020;12.066;2023-09-30T05:51:07;26.40;;;20.97;;
8964;SDS011;4517;49.020;12.066;2023-09-30T05:53:33;30.37;;;21.43;;
8964;SDS011;4517;49.020;12.066;2023-09-30T05:56:01;25.53;;;19.27;;
8964;SDS011;4517;49.020;12.066;2023-09-30T05:58:27;28.07;;;20.10;;
8964;SDS011;4517;49.020;12.066;2023-09-30T06:00:53;27.50;;;19.33;;
8964;SDS011;4517;49.020;12.066;2023-09-30T06:03:19;23.13;;;19.00;;
8964;SDS011;4517;49.020;12.066;2023-09-30T06:05:48;23.97;;;18.70;;
8964;SDS011;4517;49.020;12.066;2023-09-30T06:08:14;24.57;;;19.73;;
8964;SDS011;4517;49.020;12.066;2023-09-30T06:10:43;30.03;;;20.00;;
8964;SDS011;4517;49.020;12.066;2023-09-30T06:13:09;27.43;;;19.90;;
8964;SDS011;4517;49.020;12.066;2023-09-30T06:15:39;28.10;;;20.10;;
8964;SDS011;4517;49.020;12.066;2023-09-30T06:18:05;23.27;;;18.97;;
8964;SDS011;4517;49.020;12.066;2023-09-30T06:20:31;27.40;;;20.70;;
8964;SDS011;4517;49.020;12.066;2023-09-30T06:22:58;31.77;;;20.43;;
8964;SDS011;4517;49.020;12.066;2023-09-30T06:25:25;25.30;;;18.67;;
8964;SDS011;4517;49.020;12.066;2023-09-30T06:27:52;23.80;;;18.37;;
8964;SDS011;4517;49.020;12.066;2023-09-30T06:30:19;29.60;;;19.60;;
8964;SDS011;4517;49.020;12.066;2023-09-30T06:32:46;25.53;;;18.83;;
8964;SDS011;4517;49.020;12.066;2023-09-30T06:35:12;24.17;;;18.30;;
8964;SDS011;4517;49.020;12.066;2023-09-30T06:37:42;20.37;;;18.27;;
8964;SDS011;4517;49.020;12.066;2023-09-30T06:40:10;20.83;;;18.60;;
8964;SDS011;4517;49.020;12.066;2023-09-30T06:42:37;25.60;;;19.33;;
8964;SDS011;4517;49.020;12.066;2023-09-30T06:45:05;19.47;;;17.40;;
8964;SDS011;4517;49.020;12.066;2023-09-30T06:47:34;24.50;;;19.53;;
8964;SDS011;4517;49.020;12.066;2023-09-30T06:50:01;24.17;;;19.47;;
8964;SDS011;4517;49.020;12.066;2023-09-30T06:52:36;23.00;;;19.10;;
8964;SDS011;4517;49.020;12.066;2023-09-30T06:55:03;22.70;;;18.80;;
8964;SDS011;4517;49.020;12.066;2023-09-30T06:57:29;22.77;;;17.93;;
8964;SDS011;4517;49.020;12.066;2023-09-30T06:59:55;26.03;;;19.63;;
8964;SDS011;4517;49.020;12.066;2023-09-30T07:02:21;22.30;;;18.80;;
8964;SDS011;4517;49.020;12.066;2023-09-30T07:04:47;21.87;;;18.10;;
8964;SDS011;4517;49.020;12.066;2023-09-30T07:07:13;24.10;;;18.20;;
8964;SDS011;4517;49.020;12.066;2023-09-30T07:09:40;20.20;;;18.07;;
8964;SDS011;4517;49.020;12.066;2023-09-30T07:12:06;21.07;;;18.37;;
8964;SDS011;4517;49.020;12.066;2023-09-30T07:14:32;25.80;;;19.60;;
8964;SDS011;4517;49.020;12.066;2023-09-30T07:16:58;20.73;;;18.47;;
8964;SDS011;4517;49.020;12.066;2023-09-30T07:19:24;19.20;;;17.07;;
8964;SDS011;4517;49.020;12.066;2023-09-30T07:21:50;19.27;;;17.20;;
8964;SDS011;4517;49.020;12.066;2023-09-30T07:24:16;20.10;;;18.10;;
8964;SDS011;4517;49.020;12.066;2023-09-30T07:26:42;19.27;;;17.67;;
8964;SDS011;4517;49.020;12.066;2023-09-30T07:29:09;17.23;;;15.53;;
8964;SDS011;4517;49.020;12.066;2023-09-30T07:31:35;16.80;;;15.40;;
8964;SDS011;4517;49.020;12.066;2023-09-30T07:34:02;17.30;;;15.63;;
8964;SDS011;4517;49.020;12.066;2023-09-30T07:36:28;16.43;;;14.93;;
8964;SDS011;4517;49.020;12.066;2023-09-30T07:38:54;16.10;;;14.90;;
8964;SDS011;4517;49.020;12.066;2023-09-30T07:41:20;16.10;;;15.00;;
8964;SDS011;4517;49.020;12.066;2023-09-30T07:43:46;17.20;;;15.60;;
8964;SDS011;4517;49.020;12.066;2023-09-30T07:46:12;15.97;;;14.47;;
8964;SDS011;4517;49.020;12.066;2023-09-30T07:48:40;16.60;;;15.40;;
8964;SDS011;4517;49.020;12.066;2023-09-30T07:51:06;17.10;;;15.77;;
8964;SDS011;4517;49.020;12.066;2023-09-30T07:53:38;16.23;;;15.00;;
8964;SDS011;4517;49.020;12.066;2023-09-30T07:56:05;16.00;;;14.93;;
8964;SDS011;4517;49.020;12.066;2023-09-30T07:58:31;15.20;;;14.20;;
8964;SDS011;4517;49.020;12.066;2023-09-30T08:00:58;15.10;;;14.00;;
8964;SDS011;4517;49.020;12.066;2023-09-30T08:03:25;15.17;;;14.17;;
8964;SDS011;4517;49.020;12.066;2023-09-30T08:05:51;15.50;;;14.50;;
8964;SDS011;4517;49.020;12.066;2023-09-30T08:08:17;15.63;;;14.53;;
8964;SDS011;4517;49.020;12.066;2023-09-30T08:10:43;15.70;;;14.70;;
8964;SDS011;4517;49.020;12.066;2023-09-30T08:13:09;16.03;;;14.93;;
8964;SDS011;4517;49.020;12.066;2023-09-30T08:15:36;15.50;;;14.40;;
8964;SDS011;4517;49.020;12.066;2023-09-30T08:18:03;15.30;;;14.33;;
8964;SDS011;4517;49.020;12.066;2023-09-30T08:20:31;15.33;;;14.33;;
8964;SDS011;4517;49.020;12.066;2023-09-30T08:22:57;15.83;;;14.83;;
8964;SDS011;4517;49.020;12.066;2023-09-30T08:25:23;14.90;;;13.80;;
8964;SDS011;4517;49.020;12.066;2023-09-30T08:27:49;15.27;;;14.17;;
8964;SDS011;4517;49.020;12.066;2023-09-30T08:30:16;16.43;;;15.23;;
8964;SDS011;4517;49.020;12.066;2023-09-30T08:32:42;15.43;;;14.50;;
8964;SDS011;4517;49.020;12.066;2023-09-30T08:35:08;15.43;;;14.43;;
8964;SDS011;4517;49.020;12.066;2023-09-30T08:37:34;16.17;;;15.17;;
8964;SDS011;4517;49.020;12.066;2023-09-30T08:40:00;15.23;;;14.30;;
8964;SDS011;4517;49.020;12.066;2023-09-30T08:42:27;14.67;;;13.73;;
8964;SDS011;4517;49.020;12.066;2023-09-30T08:44:57;15.37;;;14.47;;
8964;SDS011;4517;49.020;12.066;2023-09-30T08:47:27;14.57;;;13.67;;
8964;SDS011;4517;49.020;12.066;2023-09-30T08:49:54;15.00;;;14.10;;
8964;SDS011;4517;49.020;12.066;2023-09-30T08:52:22;14.50;;;13.70;;
8964;SDS011;4517;49.020;12.066;2023-09-30T08:54:48;15.00;;;14.10;;
8964;SDS011;4517;49.020;12.066;2023-09-30T08:57:15;14.20;;;13.30;;
8964;SDS011;4517;49.020;12.066;2023-09-30T08:59:43;14.47;;;13.67;;
8964;SDS011;4517;49.020;12.066;2023-09-30T09:02:10;15.07;;;14.17;;
8964;SDS011;4517;49.020;12.066;2023-09-30T09:04:36;14.83;;;13.93;;
8964;SDS011;4517;49.020;12.066;2023-09-30T09:07:02;16.17;;;14.60;;
8964;SDS011;4517;49.020;12.066;2023-09-30T09:09:28;15.13;;;14.23;;
8964;SDS011;4517;49.020;12.066;2023-09-30T09:11:54;15.43;;;14.53;;
8964;SDS011;4517;49.020;12.066;2023-09-30T09:14:36;16.40;;;15.40;;
8964;SDS011;4517;49.020;12.066;2023-09-30T09:17:02;15.47;;;14.57;;
8964;SDS011;4517;49.020;12.066;2023-09-30T09:19:29;14.87;;;13.97;;
8964;SDS011;4517;49.020;12.066;2023-09-30T09:21:59;15.27;;;14.37;;
8964;SDS011;4517;49.020;12.066;2023-09-30T09:24:29;15.43;;;14.53;;
8964;SDS011;4517;49.020;12.066;2023-09-30T09:27:05;15.80;;;14.90;;
8964;SDS011;4517;49.020;12.066;2023-09-30T09:29:32;15.20;;;14.20;;
8964;SDS011;4517;49.020;12.066;2023-09-30T09:32:11;14.83;;;14.03;;
8964;SDS011;4517;49.020;12.066;2023-09-30T09:34:37;15.10;;;14.30;;
8964;SDS011;4517;49.020;12.066;2023-09-30T09:37:19;15.17;;;14.37;;
8964;SDS011;4517;49.020;12.066;2023-09-30T09:39:52;14.60;;;13.80;;
8964;SDS011;4517;49.020;12.066;2023-09-30T09:44:51;14.47;;;13.67;;
8964;SDS011;4517;49.020;12.066;2023-09-30T09:47:20;16.50;;;15.40;;
8964;SDS011;4517;49.020;12.066;2023-09-30T09:49:47;14.73;;;13.83;;
8964;SDS011;4517;49.020;12.066;2023-09-30T09:52:13;16.10;;;15.20;;
8964;SDS011;4517;49.020;12.066;2023-09-30T09:54:41;15.43;;;14.53;;
8964;SDS011;4517;49.020;12.066;2023-09-30T09:57:07;16.30;;;15.40;;
8964;SDS011;4517;49.020;12.066;2023-09-30T09:59:38;14.23;;;13.33;;
8964;SDS011;4517;49.020;12.066;2023-09-30T10:02:11;15.33;;;14.33;;
8964;SDS011;4517;49.020;12.066;2023-09-30T10:04:41;15.20;;;14.30;;
8964;SDS011;4517;49.020;12.066;2023-09-30T10:07:09;15.70;;;14.70;;
8964;SDS011;4517;49.020;12.066;2023-09-30T10:09:36;15.47;;;14.47;;
8964;SDS011;4517;49.020;12.066;2023-09-30T10:12:02;16.13;;;15.13;;
8964;SDS011;4517;49.020;12.066;2023-09-30T10:14:33;15.37;;;14.47;;
8964;SDS011;4517;49.020;12.066;2023-09-30T10:17:00;14.17;;;13.37;;
8964;SDS011;4517;49.020;12.066;2023-09-30T10:19:28;15.33;;;14.13;;
8964;SDS011;4517;49.020;12.066;2023-09-30T10:24:40;16.07;;;15.00;;
8964;SDS011;4517;49.020;12.066;2023-09-30T10:27:27;14.87;;;13.70;;
8964;SDS011;4517;49.020;12.066;2023-09-30T10:35:19;15.27;;;14.27;;
8964;SDS011;4517;49.020;12.066;2023-09-30T10:37:45;15.50;;;14.60;;
8964;SDS011;4517;49.020;12.066;2023-09-30T10:40:27;15.37;;;14.30;;
8964;SDS011;4517;49.020;12.066;2023-09-30T10:42:53;16.40;;;15.20;;
8964;SDS011;4517;49.020;12.066;2023-09-30T10:46:03;16.67;;;15.57;;
8964;SDS011;4517;49.020;12.066;2023-09-30T10:51:00;15.97;;;14.87;;
8964;SDS011;4517;49.020;12.066;2023-09-30T10:53:27;15.13;;;14.13;;
8964;SDS011;4517;49.020;12.066;2023-09-30T10:56:00;15.93;;;14.80;;
8964;SDS011;4517;49.020;12.066;2023-09-30T10:58:42;16.23;;;15.07;;
8964;SDS011;4517;49.020;12.066;2023-09-30T11:01:09;15.80;;;14.80;;
8964;SDS011;4517;49.020;12.066;2023-09-30T11:03:35;17.03;;;15.63;;
8964;SDS011;4517;49.020;12.066;2023-09-30T11:06:01;15.53;;;14.43;;
8964;SDS011;4517;49.020;12.066;2023-09-30T11:08:29;16.00;;;14.90;;
8964;SDS011;4517;49.020;12.066;2023-09-30T11:10:55;16.60;;;15.37;;
8964;SDS011;4517;49.020;12.066;2023-09-30T11:13:21;16.53;;;15.33;;
8964;SDS011;4517;49.020;12.066;2023-09-30T11:15:51;18.13;;;16.83;;
8964;SDS011;4517;49.020;12.066;2023-09-30T11:18:25;17.47;;;16.17;;
8964;SDS011;4517;49.020;12.066;2023-09-30T11:20:53;16.17;;;15.07;;
8964;SDS011;4517;49.020;12.066;2023-09-30T11:23:28;16.70;;;15.50;;
8964;SDS011;4517;49.020;12.066;2023-09-30T11:25:54;18.17;;;16.87;;
8964;SDS011;4517;49.020;12.066;2023-09-30T11:28:20;18.17;;;16.77;;
8964;SDS011;4517;49.020;12.066;2023-09-30T11:30:56;17.97;;;16.47;;
8964;SDS011;4517;49.020;12.066;2023-09-30T11:33:23;18.10;;;16.70;;
8964;SDS011;4517;49.020;12.066;2023-09-30T11:36:02;17.27;;;15.90;;
8964;SDS011;4517;49.020;12.066;2023-09-30T11:38:29;17.83;;;16.30;;
8964;SDS011;4517;49.020;12.066;2023-09-30T11:43:25;17.90;;;16.20;;
8964;SDS011;4517;49.020;12.066;2023-09-30T11:45:51;16.90;;;15.67;;
8964;SDS011;4517;49.020;12.066;2023-09-30T11:48:17;18.17;;;16.77;;
8964;SDS011;4517;49.020;12.066;2023-09-30T11:50:45;17.00;;;15.60;;
8964;SDS011;4517;49.020;12.066;2023-09-30T11:53:15;17.50;;;16.10;;
8964;SDS011;4517;49.020;12.066;2023-09-30T11:55:41;17.83;;;16.30;;
8964;SDS011;4517;49.020;12.066;2023-09-30T11:58:07;18.10;;;16.70;;
8964;SDS011;4517;49.020;12.066;2023-09-30T12:00:34;18.83;;;17.30;;
8964;SDS011;4517;49.020;12.066;2023-09-30T12:03:00;18.07;;;16.67;;
8964;SDS011;4517;49.020;12.066;2023-09-30T12:05:27;17.90;;;16.20;;
8964;SDS011;4517;49.020;12.066;2023-09-30T12:07:54;18.50;;;16.93;;
8964;SDS011;4517;49.020;12.066;2023-09-30T12:10:20;18.07;;;16.17;;
8964;SDS011;4517;49.020;12.066;2023-09-30T12:12:46;18.37;;;16.83;;
8964;SDS011;4517;49.020;12.066;2023-09-30T12:15:12;18.80;;;17.20;;
8964;SDS011;4517;49.020;12.066;2023-09-30T12:17:38;19.80;;;17.90;;
8964;SDS011;4517;49.020;12.066;2023-09-30T12:20:05;18.97;;;17.27;;
8964;SDS011;4517;49.020;12.066;2023-09-30T12:22:31;18.97;;;17.07;;
8964;SDS011;4517;49.020;12.066;2023-09-30T12:24:57;18.70;;;17.23;;
8964;SDS011;4517;49.020;12.066;2023-09-30T12:27:25;20.03;;;17.10;;
8964;SDS011;4517;49.020;12.066;2023-09-30T12:29:51;18.40;;;16.87;;
8964;SDS011;4517;49.020;12.066;2023-09-30T12:32:17;19.57;;;17.90;;
8964;SDS011;4517;49.020;12.066;2023-09-30T12:34:43;17.93;;;16.43;;
8964;SDS011;4517;49.020;12.066;2023-09-30T12:37:09;18.87;;;17.10;;
8964;SDS011;4517;49.020;12.066;2023-09-30T12:39:35;18.10;;;16.60;;
8964;SDS011;4517;49.020;12.066;2023-09-30T12:42:01;18.37;;;16.93;;
8964;SDS011;4517;49.020;12.066;2023-09-30T12:44:33;18.60;;;17.00;;
8964;SDS011;4517;49.020;12.066;2023-09-30T12:47:00;19.73;;;17.83;;
8964;SDS011;4517;49.020;12.066;2023-09-30T12:49:27;17.67;;;16.17;;
8964;SDS011;4517;49.020;12.066;2023-09-30T12:51:53;19.53;;;17.80;;
8964;SDS011;4517;49.020;12.066;2023-09-30T12:54:21;18.40;;;17.00;;
8964;SDS011;4517;49.020;12.066;2023-09-30T12:56:47;20.33;;;18.67;;
8964;SDS011;4517;49.020;12.066;2023-09-30T12:59:13;19.23;;;17.70;;
8964;SDS011;4517;49.020;12.066;2023-09-30T13:01:39;19.40;;;17.80;;
8964;SDS011;4517;49.020;12.066;2023-09-30T13:04:05;20.10;;;18.40;;
8964;SDS011;4517;49.020;12.066;2023-09-30T13:06:33;19.60;;;17.80;;
8964;SDS011;4517;49.020;12.066;2023-09-30T13:09:00;20.43;;;18.43;;
8964;SDS011;4517;49.020;12.066;2023-09-30T13:11:26;19.43;;;17.73;;
8964;SDS011;4517;49.020;12.066;2023-09-30T13:13:52;18.57;;;16.97;;
8964;SDS011;4517;49.020;12.066;2023-09-30T13:16:18;19.70;;;17.83;;
8964;SDS011;4517;49.020;12.066;2023-09-30T13:18:45;18.43;;;16.90;;
8964;SDS011;4517;49.020;12.066;2023-09-30T13:21:11;19.43;;;17.53;;
8964;SDS011;4517;49.020;12.066;2023-09-30T13:23:37;17.90;;;16.30;;
8964;SDS011;4517;49.020;12.066;2023-09-30T13:26:03;18.87;;;16.97;;
8964;SDS011;4517;49.020;12.066;2023-09-30T13:28:29;19.20;;;17.37;;
8964;SDS011;4517;49.020;12.066;2023-09-30T13:30:55;20.30;;;18.60;;
8964;SDS011;4517;49.020;12.066;2023-09-30T13:33:21;20.33;;;18.60;;
8964;SDS011;4517;49.020;12.066;2023-09-30T13:35:48;18.83;;;17.20;;
8964;SDS011;4517;49.020;12.066;2023-09-30T13:38:14;19.60;;;18.00;;
8964;SDS011;4517;49.020;12.066;2023-09-30T13:40:41;18.73;;;16.90;;
8964;SDS011;4517;49.020;12.066;2023-09-30T13:43:07;19.60;;;17.90;;
8964;SDS011;4517;49.020;12.066;2023-09-30T13:45:33;21.10;;;18.03;;
8964;SDS011;4517;49.020;12.066;2023-09-30T13:47:59;19.40;;;17.60;;
8964;SDS011;4517;49.020;12.066;2023-09-30T13:50:25;19.80;;;18.10;;
8964;SDS011;4517;49.020;12.066;2023-09-30T13:52:51;20.80;;;19.00;;
8964;SDS011;4517;49.020;12.066;2023-09-30T13:55:17;19.23;;;17.47;;
8964;SDS011;4517;49.020;12.066;2023-09-30T13:57:47;18.80;;;17.10;;
8964;SDS011;4517;49.020;12.066;2023-09-30T14:00:14;18.73;;;16.83;;
8964;SDS011;4517;49.020;12.066;2023-09-30T14:02:41;18.77;;;17.07;;
8964;SDS011;4517;49.020;12.066;2023-09-30T14:05:08;20.40;;;18.50;;
8964;SDS011;4517;49.020;12.066;2023-09-30T14:07:34;19.80;;;18.00;;
8964;SDS011;4517;49.020;12.066;2023-09-30T14:10:01;18.70;;;17.10;;
8964;SDS011;4517;49.020;12.066;2023-09-30T14:12:28;19.23;;;17.33;;
8964;SDS011;4517;49.020;12.066;2023-09-30T14:14:54;19.53;;;17.93;;
8964;SDS011;4517;49.020;12.066;2023-09-30T14:17:20;20.40;;;18.50;;
8964;SDS011;4517;49.020;12.066;2023-09-30T14:19:46;19.43;;;17.63;;
8964;SDS011;4517;49.020;12.066;2023-09-30T14:22:12;20.97;;;18.80;;
8964;SDS011;4517;49.020;12.066;2023-09-30T14:24:38;20.50;;;18.60;;
8964;SDS011;4517;49.020;12.066;2023-09-30T14:27:04;20.43;;;18.40;;
8964;SDS011;4517;49.020;12.066;2023-09-30T14:29:31;18.43;;;17.03;;
8964;SDS011;4517;49.020;12.066;2023-09-30T14:31:57;19.70;;;17.80;;
8964;SDS011;4517;49.020;12.066;2023-09-30T14:34:23;18.13;;;16.73;;
8964;SDS011;4517;49.020;12.066;2023-09-30T14:36:49;20.57;;;18.43;;
8964;SDS011;4517;49.020;12.066;2023-09-30T14:39:16;36.30;;;33.67;;
8964;SDS011;4517;49.020;12.066;2023-09-30T14:41:42;19.53;;;17.90;;
8964;SDS011;4517;49.020;12.066;2023-09-30T14:44:08;20.87;;;18.70;;
8964;SDS011;4517;49.020;12.066;2023-09-30T14:46:36;21.53;;;19.27;;
8964;SDS011;4517;49.020;12.066;2023-09-30T14:49:03;19.90;;;18.10;;